sensor_id;sensor_type;location;lat;lon;timestamp;P1;durP1;ratioP1;P2;durP2;ratioP2
67721;SDS011;58309;45.292;11.820;2023-07-16T00:01:40;10.52;;;6.70;;
67721;SDS011;58309;45.292;11.820;2023-07-16T00:04:05;14.80;;;6.78;;
67721;SDS011;58309;45.292;11.820;2023-07-16T00:06:31;10.55;;;7.13;;
67721;SDS011;58309;45.292;11.820;2023-07-16T00:08:56;10.65;;;7.15;;
67721;SDS011;58309;45.292;11.820;2023-07-16T00:11:21;12.30;;;6.97;;
67721;SDS011;58309;45.292;11.820;2023-07-16T00:13:47;13.70;;;7.30;;
67721;SDS011;58309;45.292;11.820;2023-07-16T00:16:14;9.00;;;6.82;;
67721;SDS011;58309;45.292;11.820;2023-07-16T00:18:41;11.23;;;7.25;;
67721;SDS011;58309;45.292;11.820;2023-07-16T00:21:07;14.93;;;7.10;;
67721;SDS011;58309;45.292;11.820;2023-07-16T00:23:33;8.50;;;7.00;;
67721;SDS011;58309;45.292;11.820;2023-07-16T00:25:58;14.80;;;7.90;;
67721;SDS011;58309;45.292;11.820;2023-07-16T00:28:23;12.27;;;7.68;;
67721;SDS011;58309;45.292;11.820;2023-07-16T00:30:49;11.65;;;8.25;;
67721;SDS011;58309;45.292;11.820;2023-07-16T00:33:14;13.70;;;8.48;;
67721;SDS011;58309;45.292;11.820;2023-07-16T00:35:46;13.75;;;8.10;;
67721;SDS011;58309;45.292;11.820;2023-07-16T00:38:12;16.77;;;8.23;;
67721;SDS011;58309;45.292;11.820;2023-07-16T00:40:38;14.70;;;8.25;;
67721;SDS011;58309;45.292;11.820;2023-07-16T00:43:03;12.95;;;9.00;;
67721;SDS011;58309;45.292;11.820;2023-07-16T00:45:29;12.95;;;8.02;;
67721;SDS011;58309;45.292;11.820;2023-07-16T00:47:54;24.27;;;8.20;;
67721;SDS011;58309;45.292;11.820;2023-07-16T00:50:20;10.23;;;8.00;;
67721;SDS011;58309;45.292;11.820;2023-07-16T00:52:45;13.73;;;8.32;;
67721;SDS011;58309;45.292;11.820;2023-07-16T00:55:11;21.33;;;8.75;;
67721;SDS011;58309;45.292;11.820;2023-07-16T00:57:38;11.85;;;8.50;;
67721;SDS011;58309;45.292;11.820;2023-07-16T01:00:04;19.83;;;9.18;;
67721;SDS011;58309;45.292;11.820;2023-07-16T01:02:30;14.55;;;9.13;;
67721;SDS011;58309;45.292;11.820;2023-07-16T01:04:56;13.93;;;8.13;;
67721;SDS011;58309;45.292;11.820;2023-07-16T01:07:23;12.48;;;9.13;;
67721;SDS011;58309;45.292;11.820;2023-07-16T01:09:50;16.88;;;9.10;;
67721;SDS011;58309;45.292;11.820;2023-07-16T01:12:15;15.02;;;9.63;;
67721;SDS011;58309;45.292;11.820;2023-07-16T01:14:45;17.60;;;9.60;;
67721;SDS011;58309;45.292;11.820;2023-07-16T01:17:10;15.13;;;10.80;;
67721;SDS011;58309;45.292;11.820;2023-07-16T01:19:36;20.20;;;10.43;;
67721;SDS011;58309;45.292;11.820;2023-07-16T01:29:29;23.58;;;12.07;;
67721;SDS011;58309;45.292;11.820;2023-07-16T01:31:59;22.23;;;12.55;;
67721;SDS011;58309;45.292;11.820;2023-07-16T01:34:26;21.80;;;13.10;;
67721;SDS011;58309;45.292;11.820;2023-07-16T01:36:54;21.95;;;12.70;;
67721;SDS011;58309;45.292;11.820;2023-07-16T01:39:19;19.63;;;13.07;;
67721;SDS011;58309;45.292;11.820;2023-07-16T01:41:45;23.10;;;13.77;;
67721;SDS011;58309;45.292;11.820;2023-07-16T01:44:11;22.20;;;14.10;;
67721;SDS011;58309;45.292;11.820;2023-07-16T01:46:36;23.33;;;14.18;;
67721;SDS011;58309;45.292;11.820;2023-07-16T01:49:02;25.15;;;14.10;;
67721;SDS011;58309;45.292;11.820;2023-07-16T01:51:27;17.30;;;13.20;;
67721;SDS011;58309;45.292;11.820;2023-07-16T01:53:53;26.45;;;15.40;;
67721;SDS011;58309;45.292;11.820;2023-07-16T01:56:18;20.77;;;14.93;;
67721;SDS011;58309;45.292;11.820;2023-07-16T01:58:44;23.48;;;14.60;;
67721;SDS011;58309;45.292;11.820;2023-07-16T02:01:10;22.25;;;14.10;;
67721;SDS011;58309;45.292;11.820;2023-07-16T02:03:35;21.17;;;14.15;;
67721;SDS011;58309;45.292;11.820;2023-07-16T02:06:01;23.58;;;14.05;;
67721;SDS011;58309;45.292;11.820;2023-07-16T02:08:26;23.33;;;14.25;;
67721;SDS011;58309;45.292;11.820;2023-07-16T02:10:51;28.02;;;14.27;;
67721;SDS011;58309;45.292;11.820;2023-07-16T02:13:17;20.95;;;13.57;;
67721;SDS011;58309;45.292;11.820;2023-07-16T02:15:42;22.42;;;14.10;;
67721;SDS011;58309;45.292;11.820;2023-07-16T02:18:08;23.60;;;15.27;;
67721;SDS011;58309;45.292;11.820;2023-07-16T02:20:34;22.92;;;15.50;;
67721;SDS011;58309;45.292;11.820;2023-07-16T02:23:00;19.08;;;14.43;;
67721;SDS011;58309;45.292;11.820;2023-07-16T02:25:25;27.05;;;15.68;;
67721;SDS011;58309;45.292;11.820;2023-07-16T02:27:51;25.00;;;14.77;;
67721;SDS011;58309;45.292;11.820;2023-07-16T02:30:16;23.50;;;14.82;;
67721;SDS011;58309;45.292;11.820;2023-07-16T02:32:42;27.33;;;15.80;;
67721;SDS011;58309;45.292;11.820;2023-07-16T02:35:08;22.15;;;13.35;;
67721;SDS011;58309;45.292;11.820;2023-07-16T02:37:34;21.48;;;14.32;;
67721;SDS011;58309;45.292;11.820;2023-07-16T02:39:59;26.50;;;15.05;;
67721;SDS011;58309;45.292;11.820;2023-07-16T02:42:25;17.92;;;14.43;;
67721;SDS011;58309;45.292;11.820;2023-07-16T02:44:51;27.17;;;14.38;;
67721;SDS011;58309;45.292;11.820;2023-07-16T02:47:16;26.67;;;15.93;;
67721;SDS011;58309;45.292;11.820;2023-07-16T02:49:42;21.90;;;15.77;;
67721;SDS011;58309;45.292;11.820;2023-07-16T02:52:07;21.35;;;14.88;;
67721;SDS011;58309;45.292;11.820;2023-07-16T02:54:34;20.33;;;14.95;;
67721;SDS011;58309;45.292;11.820;2023-07-16T02:57:00;24.80;;;16.02;;
67721;SDS011;58309;45.292;11.820;2023-07-16T02:59:26;20.95;;;16.30;;
67721;SDS011;58309;45.292;11.820;2023-07-16T03:01:52;23.63;;;16.17;;
67721;SDS011;58309;45.292;11.820;2023-07-16T03:04:18;26.52;;;17.05;;
67721;SDS011;58309;45.292;11.820;2023-07-16T03:06:44;26.15;;;16.75;;
67721;SDS011;58309;45.292;11.820;2023-07-16T03:09:09;25.63;;;15.95;;
67721;SDS011;58309;45.292;11.820;2023-07-16T03:11:35;26.30;;;17.38;;
67721;SDS011;58309;45.292;11.820;2023-07-16T03:14:00;24.65;;;17.52;;
67721;SDS011;58309;45.292;11.820;2023-07-16T03:16:25;23.13;;;16.88;;
67721;SDS011;58309;45.292;11.820;2023-07-16T03:18:51;26.88;;;18.00;;
67721;SDS011;58309;45.292;11.820;2023-07-16T03:21:17;24.73;;;17.58;;
67721;SDS011;58309;45.292;11.820;2023-07-16T03:23:43;25.33;;;18.30;;
67721;SDS011;58309;45.292;11.820;2023-07-16T03:26:08;26.58;;;20.05;;
67721;SDS011;58309;45.292;11.820;2023-07-16T03:28:34;23.05;;;17.15;;
67721;SDS011;58309;45.292;11.820;2023-07-16T03:30:59;28.15;;;19.30;;
67721;SDS011;58309;45.292;11.820;2023-07-16T03:33:25;31.08;;;18.77;;
67721;SDS011;58309;45.292;11.820;2023-07-16T03:35:50;25.05;;;18.33;;
67721;SDS011;58309;45.292;11.820;2023-07-16T03:38:16;30.10;;;18.35;;
67721;SDS011;58309;45.292;11.820;2023-07-16T03:40:42;25.48;;;19.10;;
67721;SDS011;58309;45.292;11.820;2023-07-16T03:43:11;27.67;;;19.88;;
67721;SDS011;58309;45.292;11.820;2023-07-16T03:45:37;23.05;;;17.55;;
67721;SDS011;58309;45.292;11.820;2023-07-16T03:48:02;30.13;;;20.08;;
67721;SDS011;58309;45.292;11.820;2023-07-16T03:50:28;33.75;;;19.17;;
67721;SDS011;58309;45.292;11.820;2023-07-16T03:52:53;29.52;;;20.35;;
67721;SDS011;58309;45.292;11.820;2023-07-16T03:55:19;31.10;;;18.70;;
67721;SDS011;58309;45.292;11.820;2023-07-16T03:57:44;25.23;;;18.65;;
67721;SDS011;58309;45.292;11.820;2023-07-16T04:00:10;28.98;;;19.27;;
67721;SDS011;58309;45.292;11.820;2023-07-16T04:02:36;23.80;;;17.60;;
67721;SDS011;58309;45.292;11.820;2023-07-16T04:05:01;29.20;;;18.55;;
67721;SDS011;58309;45.292;11.820;2023-07-16T04:07:28;32.50;;;17.90;;
67721;SDS011;58309;45.292;11.820;2023-07-16T04:09:53;28.17;;;18.88;;
67721;SDS011;58309;45.292;11.820;2023-07-16T04:12:19;29.35;;;21.00;;
67721;SDS011;58309;45.292;11.820;2023-07-16T04:14:44;27.75;;;20.83;;
67721;SDS011;58309;45.292;11.820;2023-07-16T04:17:11;29.90;;;20.50;;
67721;SDS011;58309;45.292;11.820;2023-07-16T04:19:37;33.47;;;21.23;;
67721;SDS011;58309;45.292;11.820;2023-07-16T04:22:03;32.90;;;20.30;;
67721;SDS011;58309;45.292;11.820;2023-07-16T04:24:28;31.67;;;22.13;;
67721;SDS011;58309;45.292;11.820;2023-07-16T04:26:54;28.65;;;19.67;;
67721;SDS011;58309;45.292;11.820;2023-07-16T04:29:19;33.63;;;21.27;;
67721;SDS011;58309;45.292;11.820;2023-07-16T04:31:45;28.90;;;21.10;;
67721;SDS011;58309;45.292;11.820;2023-07-16T04:34:10;31.88;;;20.73;;
67721;SDS011;58309;45.292;11.820;2023-07-16T04:36:36;33.85;;;21.60;;
67721;SDS011;58309;45.292;11.820;2023-07-16T04:39:01;27.98;;;21.17;;
67721;SDS011;58309;45.292;11.820;2023-07-16T04:41:27;30.52;;;20.52;;
67721;SDS011;58309;45.292;11.820;2023-07-16T04:43:52;29.33;;;19.85;;
67721;SDS011;58309;45.292;11.820;2023-07-16T04:46:18;32.67;;;19.42;;
67721;SDS011;58309;45.292;11.820;2023-07-16T04:48:43;28.25;;;20.75;;
67721;SDS011;58309;45.292;11.820;2023-07-16T04:51:09;28.45;;;19.60;;
67721;SDS011;58309;45.292;11.820;2023-07-16T04:53:34;31.05;;;18.13;;
67721;SDS011;58309;45.292;11.820;2023-07-16T04:56:00;36.70;;;19.77;;
67721;SDS011;58309;45.292;11.820;2023-07-16T04:58:25;29.45;;;19.55;;
67721;SDS011;58309;45.292;11.820;2023-07-16T05:00:50;27.50;;;19.02;;
67721;SDS011;58309;45.292;11.820;2023-07-16T05:03:16;25.50;;;17.85;;
67721;SDS011;58309;45.292;11.820;2023-07-16T05:05:41;31.20;;;18.98;;
67721;SDS011;58309;45.292;11.820;2023-07-16T05:08:07;26.55;;;17.20;;
67721;SDS011;58309;45.292;11.820;2023-07-16T05:10:33;25.95;;;18.35;;
67721;SDS011;58309;45.292;11.820;2023-07-16T05:12:58;30.05;;;19.25;;
67721;SDS011;58309;45.292;11.820;2023-07-16T05:15:24;30.50;;;19.83;;
67721;SDS011;58309;45.292;11.820;2023-07-16T05:17:49;31.17;;;19.30;;
67721;SDS011;58309;45.292;11.820;2023-07-16T05:20:15;32.97;;;18.80;;
67721;SDS011;58309;45.292;11.820;2023-07-16T05:22:40;28.15;;;19.05;;
67721;SDS011;58309;45.292;11.820;2023-07-16T05:25:06;26.08;;;17.15;;
67721;SDS011;58309;45.292;11.820;2023-07-16T05:27:31;24.27;;;15.88;;
67721;SDS011;58309;45.292;11.820;2023-07-16T05:29:57;27.65;;;16.48;;
67721;SDS011;58309;45.292;11.820;2023-07-16T05:32:22;22.67;;;16.63;;
67721;SDS011;58309;45.292;11.820;2023-07-16T05:34:48;26.45;;;16.60;;
67721;SDS011;58309;45.292;11.820;2023-07-16T05:37:13;32.35;;;16.85;;
67721;SDS011;58309;45.292;11.820;2023-07-16T05:39:39;22.88;;;17.10;;
67721;SDS011;58309;45.292;11.820;2023-07-16T05:42:04;25.67;;;15.93;;
67721;SDS011;58309;45.292;11.820;2023-07-16T05:44:30;29.75;;;16.40;;
67721;SDS011;58309;45.292;11.820;2023-07-16T05:46:56;21.52;;;16.25;;
67721;SDS011;58309;45.292;11.820;2023-07-16T05:49:22;26.30;;;17.45;;
67721;SDS011;58309;45.292;11.820;2023-07-16T05:51:48;29.23;;;17.85;;
67721;SDS011;58309;45.292;11.820;2023-07-16T05:54:14;26.70;;;18.58;;
67721;SDS011;58309;45.292;11.820;2023-07-16T05:56:39;23.20;;;17.65;;
67721;SDS011;58309;45.292;11.820;2023-07-16T05:59:05;26.17;;;19.08;;
67721;SDS011;58309;45.292;11.820;2023-07-16T06:01:30;26.52;;;18.38;;
67721;SDS011;58309;45.292;11.820;2023-07-16T06:03:56;26.00;;;18.52;;
67721;SDS011;58309;45.292;11.820;2023-07-16T06:06:21;30.48;;;17.92;;
67721;SDS011;58309;45.292;11.820;2023-07-16T06:08:47;32.88;;;18.35;;
67721;SDS011;58309;45.292;11.820;2023-07-16T06:11:13;29.73;;;17.80;;
67721;SDS011;58309;45.292;11.820;2023-07-16T06:13:39;26.30;;;17.58;;
67721;SDS011;58309;45.292;11.820;2023-07-16T06:16:04;21.85;;;16.13;;
67721;SDS011;58309;45.292;11.820;2023-07-16T06:18:30;30.50;;;16.77;;
67721;SDS011;58309;45.292;11.820;2023-07-16T06:20:56;26.63;;;16.15;;
67721;SDS011;58309;45.292;11.820;2023-07-16T06:23:21;23.95;;;17.25;;
67721;SDS011;58309;45.292;11.820;2023-07-16T06:25:47;22.48;;;15.25;;
67721;SDS011;58309;45.292;11.820;2023-07-16T06:28:15;22.10;;;15.18;;
67721;SDS011;58309;45.292;11.820;2023-07-16T06:30:40;22.50;;;14.65;;
67721;SDS011;58309;45.292;11.820;2023-07-16T06:33:06;23.27;;;15.13;;
67721;SDS011;58309;45.292;11.820;2023-07-16T06:35:32;30.02;;;16.08;;
67721;SDS011;58309;45.292;11.820;2023-07-16T06:37:58;21.55;;;13.13;;
67721;SDS011;58309;45.292;11.820;2023-07-16T06:40:24;22.60;;;14.07;;
67721;SDS011;58309;45.292;11.820;2023-07-16T06:42:49;23.13;;;13.10;;
67721;SDS011;58309;45.292;11.820;2023-07-16T06:45:15;20.48;;;13.23;;
67721;SDS011;58309;45.292;11.820;2023-07-16T06:47:41;20.27;;;11.32;;
67721;SDS011;58309;45.292;11.820;2023-07-16T06:50:08;19.50;;;10.90;;
67721;SDS011;58309;45.292;11.820;2023-07-16T06:52:34;15.68;;;11.45;;
67721;SDS011;58309;45.292;11.820;2023-07-16T06:55:00;18.48;;;10.35;;
67721;SDS011;58309;45.292;11.820;2023-07-16T06:57:25;23.73;;;11.13;;
67721;SDS011;58309;45.292;11.820;2023-07-16T06:59:50;17.63;;;11.38;;
67721;SDS011;58309;45.292;11.820;2023-07-16T07:02:16;17.80;;;11.10;;
67721;SDS011;58309;45.292;11.820;2023-07-16T07:04:42;16.08;;;10.80;;
67721;SDS011;58309;45.292;11.820;2023-07-16T07:07:08;20.27;;;11.50;;
67721;SDS011;58309;45.292;11.820;2023-07-16T07:09:33;22.10;;;11.18;;
67721;SDS011;58309;45.292;11.820;2023-07-16T07:11:59;20.42;;;10.93;;
67721;SDS011;58309;45.292;11.820;2023-07-16T07:14:24;16.45;;;8.50;;
67721;SDS011;58309;45.292;11.820;2023-07-16T07:16:50;18.88;;;8.00;;
67721;SDS011;58309;45.292;11.820;2023-07-16T07:19:15;14.93;;;8.85;;
67721;SDS011;58309;45.292;11.820;2023-07-16T07:21:41;18.08;;;8.32;;
67721;SDS011;58309;45.292;11.820;2023-07-16T07:24:06;14.85;;;8.23;;
67721;SDS011;58309;45.292;11.820;2023-07-16T07:26:32;14.50;;;8.10;;
67721;SDS011;58309;45.292;11.820;2023-07-16T07:28:57;18.42;;;8.48;;
67721;SDS011;58309;45.292;11.820;2023-07-16T07:31:23;19.00;;;9.40;;
67721;SDS011;58309;45.292;11.820;2023-07-16T07:33:48;17.77;;;8.45;;
67721;SDS011;58309;45.292;11.820;2023-07-16T07:36:14;12.82;;;8.23;;
67721;SDS011;58309;45.292;11.820;2023-07-16T07:38:39;19.33;;;8.00;;
67721;SDS011;58309;45.292;11.820;2023-07-16T07:41:05;12.63;;;7.65;;
67721;SDS011;58309;45.292;11.820;2023-07-16T07:43:31;15.75;;;6.95;;
67721;SDS011;58309;45.292;11.820;2023-07-16T07:45:56;15.88;;;7.80;;
67721;SDS011;58309;45.292;11.820;2023-07-16T07:48:21;18.45;;;7.78;;
67721;SDS011;58309;45.292;11.820;2023-07-16T07:50:47;14.70;;;7.18;;
67721;SDS011;58309;45.292;11.820;2023-07-16T07:53:13;15.57;;;6.40;;
67721;SDS011;58309;45.292;11.820;2023-07-16T07:55:40;16.85;;;6.88;;
67721;SDS011;58309;45.292;11.820;2023-07-16T07:58:06;13.70;;;6.30;;
67721;SDS011;58309;45.292;11.820;2023-07-16T08:00:32;13.48;;;6.32;;
67721;SDS011;58309;45.292;11.820;2023-07-16T08:02:58;10.98;;;6.10;;
67721;SDS011;58309;45.292;11.820;2023-07-16T08:05:24;13.85;;;6.40;;
67721;SDS011;58309;45.292;11.820;2023-07-16T08:07:49;11.10;;;5.68;;
67721;SDS011;58309;45.292;11.820;2023-07-16T08:10:15;14.55;;;6.18;;
67721;SDS011;58309;45.292;11.820;2023-07-16T08:12:43;14.77;;;6.45;;
67721;SDS011;58309;45.292;11.820;2023-07-16T08:15:09;14.52;;;5.80;;
67721;SDS011;58309;45.292;11.820;2023-07-16T08:17:39;10.82;;;5.72;;
67721;SDS011;58309;45.292;11.820;2023-07-16T08:20:05;15.15;;;5.90;;
67721;SDS011;58309;45.292;11.820;2023-07-16T08:22:32;10.35;;;5.78;;
67721;SDS011;58309;45.292;11.820;2023-07-16T08:24:57;11.45;;;5.65;;
67721;SDS011;58309;45.292;11.820;2023-07-16T08:27:23;11.48;;;5.32;;
67721;SDS011;58309;45.292;11.820;2023-07-16T08:29:48;10.27;;;5.00;;
67721;SDS011;58309;45.292;11.820;2023-07-16T08:32:14;11.80;;;5.10;;
67721;SDS011;58309;45.292;11.820;2023-07-16T08:34:39;10.82;;;5.00;;
67721;SDS011;58309;45.292;11.820;2023-07-16T08:37:05;12.20;;;4.90;;
67721;SDS011;58309;45.292;11.820;2023-07-16T08:39:30;11.25;;;4.80;;
67721;SDS011;58309;45.292;11.820;2023-07-16T08:41:56;12.38;;;5.07;;
67721;SDS011;58309;45.292;11.820;2023-07-16T08:44:22;11.07;;;4.93;;
67721;SDS011;58309;45.292;11.820;2023-07-16T08:46:48;11.05;;;5.25;;
67721;SDS011;58309;45.292;11.820;2023-07-16T08:49:15;10.82;;;4.95;;
67721;SDS011;58309;45.292;11.820;2023-07-16T08:51:43;11.65;;;5.47;;
67721;SDS011;58309;45.292;11.820;2023-07-16T08:54:12;12.88;;;5.25;;
67721;SDS011;58309;45.292;11.820;2023-07-16T08:56:40;15.75;;;5.35;;
67721;SDS011;58309;45.292;11.820;2023-07-16T08:59:06;9.90;;;4.90;;
67721;SDS011;58309;45.292;11.820;2023-07-16T09:01:33;9.80;;;4.60;;
67721;SDS011;58309;45.292;11.820;2023-07-16T09:03:58;11.20;;;4.40;;
67721;SDS011;58309;45.292;11.820;2023-07-16T09:06:24;8.68;;;4.95;;
67721;SDS011;58309;45.292;11.820;2023-07-16T09:08:49;10.68;;;4.88;;
67721;SDS011;58309;45.292;11.820;2023-07-16T09:11:15;12.43;;;5.18;;
67721;SDS011;58309;45.292;11.820;2023-07-16T09:13:46;13.27;;;5.47;;
67721;SDS011;58309;45.292;11.820;2023-07-16T09:16:11;11.52;;;4.88;;
67721;SDS011;58309;45.292;11.820;2023-07-16T09:18:39;9.50;;;5.13;;
67721;SDS011;58309;45.292;11.820;2023-07-16T09:21:05;10.67;;;4.73;;
67721;SDS011;58309;45.292;11.820;2023-07-16T09:23:32;8.55;;;4.90;;
67721;SDS011;58309;45.292;11.820;2023-07-16T09:25:58;10.52;;;4.90;;
67721;SDS011;58309;45.292;11.820;2023-07-16T09:28:23;11.68;;;5.15;;
67721;SDS011;58309;45.292;11.820;2023-07-16T09:30:52;8.68;;;4.75;;
67721;SDS011;58309;45.292;11.820;2023-07-16T09:35:50;8.48;;;5.30;;
67721;SDS011;58309;45.292;11.820;2023-07-16T09:38:17;8.98;;;4.35;;
67721;SDS011;58309;45.292;11.820;2023-07-16T09:40:43;9.93;;;4.40;;
67721;SDS011;58309;45.292;11.820;2023-07-16T09:43:09;9.00;;;4.40;;
67721;SDS011;58309;45.292;11.820;2023-07-16T09:45:36;9.35;;;4.20;;
67721;SDS011;58309;45.292;11.820;2023-07-16T09:48:02;8.77;;;4.57;;
67721;SDS011;58309;45.292;11.820;2023-07-16T09:50:29;9.20;;;4.20;;
67721;SDS011;58309;45.292;11.820;2023-07-16T09:55:23;8.68;;;3.83;;
67721;SDS011;58309;45.292;11.820;2023-07-16T09:57:49;9.18;;;4.30;;
67721;SDS011;58309;45.292;11.820;2023-07-16T10:00:17;7.05;;;3.75;;
67721;SDS011;58309;45.292;11.820;2023-07-16T10:02:45;7.13;;;4.32;;
67721;SDS011;58309;45.292;11.820;2023-07-16T10:05:15;7.25;;;4.18;;
67721;SDS011;58309;45.292;11.820;2023-07-16T10:07:51;8.40;;;4.53;;
67721;SDS011;58309;45.292;11.820;2023-07-16T10:10:19;7.57;;;4.05;;
67721;SDS011;58309;45.292;11.820;2023-07-16T10:12:55;8.90;;;4.45;;
67721;SDS011;58309;45.292;11.820;2023-07-16T10:15:27;8.45;;;3.72;;
67721;SDS011;58309;45.292;11.820;2023-07-16T10:17:55;9.85;;;3.95;;
67721;SDS011;58309;45.292;11.820;2023-07-16T10:20:28;12.32;;;4.07;;
67721;SDS011;58309;45.292;11.820;2023-07-16T10:22:55;10.73;;;4.07;;
67721;SDS011;58309;45.292;11.820;2023-07-16T10:27:46;8.17;;;3.83;;
67721;SDS011;58309;45.292;11.820;2023-07-16T10:30:12;9.02;;;4.20;;
67721;SDS011;58309;45.292;11.820;2023-07-16T10:32:38;9.90;;;4.55;;
67721;SDS011;58309;45.292;11.820;2023-07-16T10:35:05;6.93;;;3.78;;
67721;SDS011;58309;45.292;11.820;2023-07-16T10:37:31;10.05;;;6.35;;
67721;SDS011;58309;45.292;11.820;2023-07-16T10:39:57;10.10;;;6.60;;
67721;SDS011;58309;45.292;11.820;2023-07-16T10:42:24;14.75;;;7.32;;
67721;SDS011;58309;45.292;11.820;2023-07-16T10:44:52;11.30;;;4.10;;
67721;SDS011;58309;45.292;11.820;2023-07-16T10:47:24;7.10;;;4.03;;
67721;SDS011;58309;45.292;11.820;2023-07-16T10:49:55;9.88;;;4.25;;
67721;SDS011;58309;45.292;11.820;2023-07-16T10:52:21;14.18;;;4.50;;
67721;SDS011;58309;45.292;11.820;2023-07-16T10:54:48;7.70;;;3.85;;
67721;SDS011;58309;45.292;11.820;2023-07-16T10:57:15;10.68;;;4.00;;
67721;SDS011;58309;45.292;11.820;2023-07-16T10:59:41;9.40;;;4.10;;
67721;SDS011;58309;45.292;11.820;2023-07-16T11:02:10;6.75;;;3.63;;
67721;SDS011;58309;45.292;11.820;2023-07-16T11:04:36;11.67;;;4.00;;
67721;SDS011;58309;45.292;11.820;2023-07-16T11:07:06;9.57;;;4.30;;
67721;SDS011;58309;45.292;11.820;2023-07-16T11:09:33;7.43;;;3.88;;
67721;SDS011;58309;45.292;11.820;2023-07-16T11:12:06;10.27;;;4.05;;
67721;SDS011;58309;45.292;11.820;2023-07-16T11:14:33;7.82;;;4.03;;
67721;SDS011;58309;45.292;11.820;2023-07-16T11:17:08;9.10;;;3.83;;
67721;SDS011;58309;45.292;11.820;2023-07-16T11:19:34;8.90;;;3.83;;
67721;SDS011;58309;45.292;11.820;2023-07-16T11:24:28;9.98;;;3.88;;
67721;SDS011;58309;45.292;11.820;2023-07-16T11:27:01;10.32;;;3.72;;
67721;SDS011;58309;45.292;11.820;2023-07-16T11:29:27;7.55;;;3.83;;
67721;SDS011;58309;45.292;11.820;2023-07-16T11:31:59;9.13;;;3.85;;
67721;SDS011;58309;45.292;11.820;2023-07-16T11:34:25;8.05;;;4.00;;
67721;SDS011;58309;45.292;11.820;2023-07-16T11:36:50;11.93;;;3.90;;
67721;SDS011;58309;45.292;11.820;2023-07-16T11:39:16;12.85;;;4.22;;
67721;SDS011;58309;45.292;11.820;2023-07-16T11:41:41;8.55;;;4.13;;
67721;SDS011;58309;45.292;11.820;2023-07-16T11:44:07;8.55;;;3.97;;
67721;SDS011;58309;45.292;11.820;2023-07-16T11:46:33;10.63;;;4.32;;
67721;SDS011;58309;45.292;11.820;2023-07-16T11:48:59;6.88;;;4.03;;
67721;SDS011;58309;45.292;11.820;2023-07-16T11:51:25;9.63;;;3.53;;
67721;SDS011;58309;45.292;11.820;2023-07-16T11:53:50;10.18;;;4.20;;
67721;SDS011;58309;45.292;11.820;2023-07-16T11:56:16;8.18;;;3.72;;
67721;SDS011;58309;45.292;11.820;2023-07-16T11:58:41;6.40;;;3.97;;
67721;SDS011;58309;45.292;11.820;2023-07-16T12:01:07;9.63;;;4.22;;
67721;SDS011;58309;45.292;11.820;2023-07-16T12:03:32;6.72;;;4.07;;
67721;SDS011;58309;45.292;11.820;2023-07-16T12:05:58;8.48;;;4.05;;
67721;SDS011;58309;45.292;11.820;2023-07-16T12:08:24;8.57;;;3.75;;
67721;SDS011;58309;45.292;11.820;2023-07-16T12:10:49;8.88;;;4.07;;
67721;SDS011;58309;45.292;11.820;2023-07-16T12:13:15;8.82;;;4.10;;
67721;SDS011;58309;45.292;11.820;2023-07-16T12:15:40;8.32;;;3.97;;
67721;SDS011;58309;45.292;11.820;2023-07-16T12:18:06;8.98;;;3.88;;
67721;SDS011;58309;45.292;11.820;2023-07-16T12:20:31;8.90;;;3.65;;
67721;SDS011;58309;45.292;11.820;2023-07-16T12:22:57;7.93;;;3.88;;
67721;SDS011;58309;45.292;11.820;2023-07-16T12:25:22;11.73;;;4.03;;
67721;SDS011;58309;45.292;11.820;2023-07-16T12:27:47;6.90;;;3.78;;
67721;SDS011;58309;45.292;11.820;2023-07-16T12:30:13;10.02;;;4.18;;
67721;SDS011;58309;45.292;11.820;2023-07-16T12:32:39;10.00;;;3.67;;
67721;SDS011;58309;45.292;11.820;2023-07-16T12:35:04;7.32;;;4.03;;
67721;SDS011;58309;45.292;11.820;2023-07-16T12:37:30;9.68;;;4.03;;
67721;SDS011;58309;45.292;11.820;2023-07-16T12:39:55;9.65;;;4.70;;
67721;SDS011;58309;45.292;11.820;2023-07-16T12:42:21;10.82;;;3.90;;
67721;SDS011;58309;45.292;11.820;2023-07-16T12:44:46;7.63;;;4.13;;
67721;SDS011;58309;45.292;11.820;2023-07-16T12:47:12;8.98;;;4.10;;
67721;SDS011;58309;45.292;11.820;2023-07-16T12:49:37;14.80;;;4.35;;
67721;SDS011;58309;45.292;11.820;2023-07-16T12:52:03;7.13;;;4.15;;
67721;SDS011;58309;45.292;11.820;2023-07-16T12:54:29;11.20;;;4.93;;
67721;SDS011;58309;45.292;11.820;2023-07-16T12:56:54;5.88;;;4.07;;
67721;SDS011;58309;45.292;11.820;2023-07-16T12:59:20;10.20;;;4.43;;
67721;SDS011;58309;45.292;11.820;2023-07-16T13:01:45;7.47;;;4.30;;
67721;SDS011;58309;45.292;11.820;2023-07-16T13:04:11;8.60;;;4.57;;
67721;SDS011;58309;45.292;11.820;2023-07-16T13:06:36;10.70;;;4.30;;
67721;SDS011;58309;45.292;11.820;2023-07-16T13:09:02;7.32;;;4.30;;
67721;SDS011;58309;45.292;11.820;2023-07-16T13:11:30;12.50;;;4.97;;
67721;SDS011;58309;45.292;11.820;2023-07-16T13:13:55;10.63;;;4.25;;
67721;SDS011;58309;45.292;11.820;2023-07-16T13:16:21;7.72;;;4.30;;
67721;SDS011;58309;45.292;11.820;2023-07-16T13:18:46;11.00;;;4.30;;
67721;SDS011;58309;45.292;11.820;2023-07-16T13:21:12;8.27;;;4.47;;
67721;SDS011;58309;45.292;11.820;2023-07-16T13:23:37;11.00;;;4.65;;
67721;SDS011;58309;45.292;11.820;2023-07-16T13:26:03;12.82;;;4.72;;
67721;SDS011;58309;45.292;11.820;2023-07-16T13:28:28;8.95;;;4.50;;
67721;SDS011;58309;45.292;11.820;2023-07-16T13:30:54;7.38;;;4.35;;
67721;SDS011;58309;45.292;11.820;2023-07-16T13:33:19;10.00;;;4.65;;
67721;SDS011;58309;45.292;11.820;2023-07-16T13:35:45;9.40;;;4.38;;
67721;SDS011;58309;45.292;11.820;2023-07-16T13:38:10;8.88;;;4.88;;
67721;SDS011;58309;45.292;11.820;2023-07-16T13:40:36;9.70;;;4.72;;
67721;SDS011;58309;45.292;11.820;2023-07-16T13:43:01;6.80;;;4.40;;
67721;SDS011;58309;45.292;11.820;2023-07-16T13:45:27;10.35;;;4.75;;
67721;SDS011;58309;45.292;11.820;2023-07-16T13:47:52;8.52;;;4.82;;
67721;SDS011;58309;45.292;11.820;2023-07-16T13:50:19;7.00;;;4.68;;
67721;SDS011;58309;45.292;11.820;2023-07-16T13:52:44;12.93;;;5.00;;
67721;SDS011;58309;45.292;11.820;2023-07-16T13:55:10;10.35;;;5.05;;
67721;SDS011;58309;45.292;11.820;2023-07-16T13:57:35;9.05;;;4.88;;
67721;SDS011;58309;45.292;11.820;2023-07-16T14:00:01;8.38;;;4.47;;
67721;SDS011;58309;45.292;11.820;2023-07-16T14:02:29;11.40;;;4.60;;
67721;SDS011;58309;45.292;11.820;2023-07-16T14:04:54;9.00;;;4.50;;
67721;SDS011;58309;45.292;11.820;2023-07-16T14:07:20;9.75;;;4.82;;
67721;SDS011;58309;45.292;11.820;2023-07-16T14:09:45;8.90;;;5.10;;
67721;SDS011;58309;45.292;11.820;2023-07-16T14:12:11;11.27;;;4.75;;
67721;SDS011;58309;45.292;11.820;2023-07-16T14:14:36;11.50;;;4.38;;
67721;SDS011;58309;45.292;11.820;2023-07-16T14:17:02;11.20;;;4.47;;
67721;SDS011;58309;45.292;11.820;2023-07-16T14:19:28;8.00;;;4.57;;
67721;SDS011;58309;45.292;11.820;2023-07-16T14:21:54;10.35;;;5.10;;
67721;SDS011;58309;45.292;11.820;2023-07-16T14:24:20;11.05;;;4.70;;
67721;SDS011;58309;45.292;11.820;2023-07-16T14:26:45;11.23;;;5.03;;
67721;SDS011;58309;45.292;11.820;2023-07-16T14:29:11;8.60;;;4.88;;